createdAt,value
2022-08-26T00:01:46.110Z,101603.50
2022-08-26T00:04:13.049Z,101597.66
2022-08-26T00:06:42.537Z,101602.28
2022-08-26T00:09:13.175Z,101598.22
2022-08-26T00:11:42.416Z,101605.38
2022-08-26T00:26:16.490Z,101598.22
2022-08-26T00:28:43.236Z,101600.91
2022-08-26T00:31:10.874Z,101603.00
2022-08-26T00:33:38.582Z,101606.50
2022-08-26T00:36:05.904Z,101608.16
2022-08-26T00:38:32.821Z,101591.13
2022-08-26T00:40:59.386Z,101595.06
2022-08-26T00:43:26.890Z,101587.09
2022-08-26T00:46:22.913Z,101595.50
2022-08-26T00:48:53.852Z,101597.75
2022-08-26T00:51:24.949Z,101607.28
2022-08-26T00:54:04.129Z,101613.44
2022-08-26T00:56:38.179Z,101615.94
2022-08-26T00:59:08.313Z,101618.47
2022-08-26T01:01:36.356Z,101608.09
2022-08-26T01:04:03.245Z,101611.06
2022-08-26T01:06:31.592Z,101607.41
2022-08-26T01:08:58.287Z,101607.41
2022-08-26T01:11:25.807Z,101609.22
2022-08-26T01:13:57.793Z,101603.25
2022-08-26T01:16:25.544Z,101598.88
2022-08-26T01:18:57.563Z,101594.69
2022-08-26T01:21:35.980Z,101590.34
2022-08-26T01:24:07.947Z,101595.00
2022-08-26T01:26:43.237Z,101591.34
2022-08-26T01:29:14.933Z,101587.97
2022-08-26T01:31:48.936Z,101585.47
2022-08-26T01:34:25.173Z,101596.13
2022-08-26T01:36:58.645Z,101601.44
2022-08-26T01:39:25.333Z,101598.22
2022-08-26T01:41:55.713Z,101606.22
2022-08-26T01:44:26.118Z,101603.84
2022-08-26T01:46:53.819Z,101602.44
2022-08-26T01:49:22.566Z,101604.41
2022-08-26T01:51:53.661Z,101602.44
2022-08-26T01:54:20.958Z,101600.63
2022-08-26T01:56:51.214Z,101601.47
2022-08-26T01:59:20.103Z,101603.28
2022-08-26T02:01:48.133Z,101602.69
2022-08-26T02:04:27.131Z,101604.81
2022-08-26T02:06:54.566Z,101600.44
2022-08-26T02:09:22.214Z,101607.47
2022-08-26T02:11:48.748Z,101610.13
2022-08-26T02:14:28.197Z,101611.78
2022-08-26T02:16:56.004Z,101608.44
2022-08-26T02:19:29.276Z,101612.91
2022-08-26T02:21:58.558Z,101614.75
2022-08-26T02:24:29.250Z,101617.25
2022-08-26T02:26:57.849Z,101607.75
2022-08-26T02:29:35.697Z,101609.56
2022-08-26T02:32:02.330Z,101601.88
2022-08-26T02:34:31.961Z,101602.28
2022-08-26T02:37:04.709Z,101607.59
2022-08-26T02:39:33.126Z,101601.63
2022-08-26T02:42:00.128Z,101603.44
2022-08-26T02:44:26.762Z,101593.91
2022-08-26T02:46:54.579Z,101589.44
2022-08-26T02:49:22.294Z,101596.44
2022-08-26T02:51:49.793Z,101590.28
2022-08-26T02:54:18.273Z,101588.59
2022-08-26T02:56:45.668Z,101585.53
2022-08-26T02:59:15.411Z,101591.81
2022-08-26T03:01:42.572Z,101591.00
2022-08-26T03:04:11.304Z,101598.13
2022-08-26T03:06:39.007Z,101599.25
2022-08-26T03:09:07.760Z,101585.53
2022-08-26T03:11:36.582Z,101592.94
2022-08-26T03:14:03.962Z,101590.56
2022-08-26T03:16:37.461Z,101598.53
2022-08-26T03:19:06.116Z,101601.19
2022-08-26T03:21:33.815Z,101598.25
2022-08-26T03:24:03.499Z,101606.25
2022-08-26T03:26:30.614Z,101590.16
2022-08-26T03:29:15.710Z,101588.47
2022-08-26T03:31:43.095Z,101597.00
2022-08-26T03:34:09.688Z,101596.31
2022-08-26T03:36:37.852Z,101594.22
2022-08-26T03:39:04.506Z,101604.84
2022-08-26T03:41:32.575Z,101604.69
2022-08-26T03:44:01.681Z,101602.03
2022-08-26T03:46:28.489Z,101600.38
2022-08-26T03:48:55.388Z,101600.25
2022-08-26T03:51:21.779Z,101600.09
2022-08-26T03:53:50.639Z,101601.06
2022-08-26T03:56:17.302Z,101609.03
2022-08-26T03:58:44.633Z,101598.81
2022-08-26T04:01:13.208Z,101608.50
2022-08-26T04:04:03.531Z,101604.13
2022-08-26T04:06:36.687Z,101598.81
2022-08-26T04:09:09.278Z,101600.91
2022-08-26T04:11:38.466Z,101598.13
2022-08-26T04:14:09.070Z,101597.84
2022-08-26T04:16:35.812Z,101590.72
2022-08-26T04:19:03.138Z,101589.19
2022-08-26T04:21:29.577Z,101587.34
2022-08-26T04:23:56.419Z,101584.84
2022-08-26T04:26:25.671Z,101592.00
2022-08-26T04:28:54.959Z,101583.31
2022-08-26T04:31:22.475Z,101584.56
2022-08-26T04:33:50.132Z,101584.84
2022-08-26T04:36:17.442Z,101595.31
2022-08-26T04:38:46.326Z,101594.66
2022-08-26T04:41:14.863Z,101584.97
2022-08-26T04:43:42.542Z,101588.63
2022-08-26T04:46:10.207Z,101596.47
2022-08-26T04:48:40.917Z,101603.44
2022-08-26T04:51:08.499Z,101600.78
2022-08-26T04:53:36.939Z,101608.78
2022-08-26T04:56:04.174Z,101609.75
2022-08-26T04:58:31.262Z,101613.25
2022-08-26T05:00:58.422Z,101610.59
2022-08-26T05:03:27.162Z,101607.94
2022-08-26T05:05:56.708Z,101616.88
2022-08-26T05:08:24.217Z,101616.03
2022-08-26T05:10:55.888Z,101621.34
2022-08-26T05:13:25.079Z,101620.38
2022-08-26T05:15:51.980Z,101619.69
2022-08-26T05:18:23.066Z,101619.69
2022-08-26T05:20:54.608Z,101627.66
2022-08-26T05:23:22.748Z,101623.31
2022-08-26T05:25:53.640Z,101630.31
2022-08-26T05:28:22.933Z,101635.63
2022-08-26T05:30:50.289Z,101630.31
2022-08-26T05:33:18.243Z,101636.72
2022-08-26T05:35:45.643Z,101637.72
2022-08-26T05:38:18.864Z,101633.94
2022-08-26T05:40:49.074Z,101636.88
2022-08-26T05:43:20.155Z,101641.22
2022-08-26T05:45:49.447Z,101636.72
2022-08-26T05:48:22.727Z,101644.59
2022-08-26T05:50:52.893Z,101648.06
2022-08-26T05:53:21.654Z,101655.06
2022-08-26T05:55:50.670Z,101654.94
2022-08-26T05:58:20.878Z,101661.91
2022-08-26T06:00:58.639Z,101650.44
2022-08-26T06:03:25.358Z,101656.59
2022-08-26T06:05:52.007Z,101652.97
2022-08-26T06:08:21.063Z,101658.16
2022-08-26T06:10:51.269Z,101657.28
2022-08-26T06:13:21.493Z,101662.47
2022-08-26T06:15:50.097Z,101654.63
2022-08-26T06:18:20.432Z,101660.81
2022-08-26T06:20:54.583Z,101664.97
2022-08-26T06:23:45.123Z,101666.69
2022-08-26T06:26:12.175Z,101666.13
2022-08-26T06:28:38.644Z,101665.84
2022-08-26T06:31:06.085Z,101663.19
2022-08-26T06:33:33.465Z,101663.31
2022-08-26T06:36:01.109Z,101670.28
2022-08-26T06:38:27.992Z,101675.59
2022-08-26T06:40:59.682Z,101683.84
2022-08-26T06:43:28.328Z,101675.34
2022-08-26T06:46:05.182Z,101678.00
2022-08-26T06:48:32.443Z,101686.41
2022-08-26T06:51:11.383Z,101683.47
2022-08-26T06:53:41.128Z,101683.88
2022-08-26T06:56:10.289Z,101680.09
2022-08-26T06:58:38.493Z,101683.16
2022-08-26T07:01:27.166Z,101687.38
2022-08-26T07:03:57.120Z,101691.84
2022-08-26T07:06:24.389Z,101698.44
2022-08-26T07:08:54.161Z,101692.41
2022-08-26T07:11:20.587Z,101697.72
2022-08-26T07:13:47.676Z,101699.69
2022-08-26T07:16:17.379Z,101699.00
2022-08-26T07:18:45.415Z,101707.69
2022-08-26T07:21:15.171Z,101705.16
2022-08-26T07:23:41.762Z,101705.28
2022-08-26T07:26:18.036Z,101706.97
2022-08-26T07:28:46.448Z,101714.94
2022-08-26T07:31:15.006Z,101715.66
2022-08-26T07:33:42.230Z,101715.94
2022-08-26T07:36:10.284Z,101722.91
2022-08-26T07:38:38.690Z,101727.25
2022-08-26T07:41:06.577Z,101723.19
2022-08-26T07:43:36.223Z,101727.97
2022-08-26T07:46:06.790Z,101730.34
2022-08-26T07:48:34.156Z,101735.78
2022-08-26T07:51:03.671Z,101743.91
2022-08-26T07:53:30.170Z,101742.81
2022-08-26T07:55:58.889Z,101738.19
2022-08-26T07:58:25.401Z,101744.63
2022-08-26T08:00:52.583Z,101745.06
2022-08-26T08:03:20.581Z,101745.06
2022-08-26T08:05:47.263Z,101742.25
2022-08-26T08:08:26.838Z,101746.44
2022-08-26T08:10:55.636Z,101746.97
2022-08-26T08:13:23.098Z,101740.81
2022-08-26T08:15:50.475Z,101746.56
2022-08-26T08:18:20.483Z,101738.59
2022-08-26T08:20:59.100Z,101738.59
2022-08-26T08:23:32.765Z,101742.81
2022-08-26T08:26:05.492Z,101734.56
2022-08-26T08:28:32.158Z,101735.22
2022-08-26T08:30:59.220Z,101735.94
2022-08-26T08:33:26.271Z,101732.16
2022-08-26T08:35:53.196Z,101735.78
2022-08-26T08:38:19.796Z,101741.25
2022-08-26T08:40:46.504Z,101744.03
2022-08-26T08:43:23.043Z,101752.44
2022-08-26T08:45:54.570Z,101762.53
2022-08-26T08:48:29.443Z,101761.53
2022-08-26T08:51:06.312Z,101749.63
2022-08-26T08:53:39.238Z,101755.66
2022-08-26T08:56:26.421Z,101756.94
2022-08-26T08:59:32.734Z,101753.00
2022-08-26T09:02:09.887Z,101760.44
2022-08-26T09:05:14.937Z,101758.47
2022-08-26T09:08:03.588Z,101764.53
2022-08-26T09:10:40.433Z,101758.22
2022-08-26T09:13:16.895Z,101765.22
2022-08-26T09:16:10.136Z,101761.16
2022-08-26T09:18:39.677Z,101761.03
2022-08-26T09:21:11.760Z,101770.28
2022-08-26T09:23:42.801Z,101762.13
2022-08-26T09:26:21.462Z,101768.00
2022-08-26T09:29:16.344Z,101767.75
2022-08-26T09:31:42.951Z,101760.59
2022-08-26T09:34:19.045Z,101761.03
2022-08-26T09:37:00.656Z,101770.50
2022-08-26T09:39:38.227Z,101772.22
2022-08-26T09:42:04.790Z,101773.31
2022-08-26T09:44:31.949Z,101776.53
2022-08-26T09:47:03.957Z,101766.72
2022-08-26T09:49:35.966Z,101761.94
2022-08-26T09:52:17.251Z,101770.75
2022-08-26T09:54:46.054Z,101770.38
2022-08-26T09:57:27.531Z,101766.88
2022-08-26T09:59:56.017Z,101770.22
2022-08-26T10:02:47.657Z,101774.03
2022-08-26T10:05:18.489Z,101770.38
2022-08-26T10:07:51.096Z,101772.50
2022-08-26T10:10:24.162Z,101774.88
2022-08-26T10:13:03.229Z,101764.78
2022-08-26T10:15:49.984Z,101768.72
2022-08-26T10:18:33.776Z,101766.34
2022-08-26T10:21:11.012Z,101765.59
2022-08-26T10:23:44.045Z,101755.63
2022-08-26T10:26:59.730Z,101762.22
2022-08-26T10:29:35.779Z,101757.16
2022-08-26T10:32:13.735Z,101757.28
2022-08-26T10:34:40.563Z,101760.50
2022-08-26T10:37:20.462Z,101764.41
2022-08-26T10:40:46.614Z,101763.66
2022-08-26T10:43:27.117Z,101760.72
2022-08-26T10:46:00.633Z,101758.47
2022-08-26T10:48:44.033Z,101766.28
2022-08-26T10:51:13.199Z,101766.75
2022-08-26T10:53:51.372Z,101762.81
2022-08-26T10:56:29.905Z,101764.16
2022-08-26T10:59:10.361Z,101760.13
2022-08-26T11:01:50.841Z,101765.44
2022-08-26T11:04:29.649Z,101766.41
2022-08-26T11:07:39.176Z,101761.97
2022-08-26T11:10:16.660Z,101767.72
2022-08-26T11:12:45.221Z,101759.94
2022-08-26T11:15:24.663Z,101768.41
2022-08-26T11:17:55.646Z,101761.38
2022-08-26T11:20:41.911Z,101760.09
2022-08-26T11:23:22.279Z,101759.03
2022-08-26T11:25:57.914Z,101762.66
2022-08-26T11:28:45.814Z,101762.97
2022-08-26T11:31:25.583Z,101758.56
2022-08-26T11:34:00.216Z,101767.63
2022-08-26T11:36:46.352Z,101771.50
2022-08-26T11:39:15.566Z,101768.31
2022-08-26T11:41:52.858Z,101771.19
2022-08-26T11:44:26.544Z,101778.66
2022-08-26T11:47:00.579Z,101768.91
2022-08-26T11:49:28.829Z,101776.72
2022-08-26T11:52:12.127Z,101774.78
2022-08-26T11:54:39.247Z,101776.91
2022-08-26T11:57:12.290Z,101764.56
2022-08-26T11:59:42.271Z,101762.16
2022-08-26T12:02:15.964Z,101764.44
2022-08-26T12:04:48.811Z,101762.78
2022-08-26T12:07:17.123Z,101771.19
2022-08-26T12:09:57.796Z,101766.06
2022-08-26T12:12:35.143Z,101774.03
2022-08-26T12:15:11.233Z,101773.56
2022-08-26T12:17:39.314Z,101768.28
2022-08-26T12:20:19.900Z,101767.22
2022-08-26T12:22:48.092Z,101773.03
2022-08-26T12:25:23.528Z,101780.84
2022-08-26T12:27:53.783Z,101770.88
2022-08-26T12:30:23.726Z,101767.09
2022-08-26T12:33:22.127Z,101774.63
2022-08-26T12:35:54.333Z,101771.56
2022-08-26T12:38:24.231Z,101773.78
2022-08-26T12:40:50.799Z,101778.22
2022-08-26T12:43:56.682Z,101782.84
2022-08-26T12:46:27.155Z,101784.91
2022-08-26T12:48:54.854Z,101791.69
2022-08-26T12:51:29.807Z,101789.63
2022-08-26T12:53:57.971Z,101784.72
2022-08-26T12:56:24.398Z,101785.38
2022-08-26T12:59:03.033Z,101788.56
2022-08-26T13:01:38.119Z,101791.13
2022-08-26T13:04:06.486Z,101791.28
2022-08-26T13:06:34.704Z,101786.88
2022-08-26T13:09:10.078Z,101779.22
2022-08-26T13:11:39.555Z,101766.25
2022-08-26T13:14:21.049Z,101772.41
2022-08-26T13:16:52.094Z,101772.41
2022-08-26T13:19:29.564Z,101775.09
2022-08-26T13:21:58.537Z,101769.47
2022-08-26T13:24:38.375Z,101773.75
2022-08-26T13:27:06.871Z,101773.03
2022-08-26T13:29:33.714Z,101773.84
2022-08-26T13:32:00.718Z,101770.28
2022-08-26T13:34:28.276Z,101769.84
2022-08-26T13:36:56.248Z,101769.75
2022-08-26T13:39:23.603Z,101766.63
2022-08-26T13:41:50.129Z,101765.94
2022-08-26T13:44:17.344Z,101762.66
2022-08-26T13:49:12.088Z,101761.72
2022-08-26T13:51:39.451Z,101763.84
2022-08-26T13:54:06.480Z,101766.94
2022-08-26T13:56:33.964Z,101768.13
2022-08-26T13:59:01.352Z,101766.56
2022-08-26T14:01:29.532Z,101772.13
2022-08-26T14:03:56.310Z,101776.53
2022-08-26T14:06:23.004Z,101779.44
2022-08-26T14:08:49.557Z,101767.53
2022-08-26T14:11:16.234Z,101777.81
2022-08-26T14:13:42.999Z,101777.13
2022-08-26T14:16:15.010Z,101771.78
2022-08-26T14:18:47.297Z,101778.31
2022-08-26T14:21:16.846Z,101775.34
2022-08-26T14:23:43.500Z,101771.69
2022-08-26T14:26:11.975Z,101774.34
2022-08-26T14:28:55.286Z,101773.81
2022-08-26T14:31:23.777Z,101771.28
2022-08-26T14:33:51.601Z,101767.94
2022-08-26T14:36:33.647Z,101760.22
2022-08-26T14:39:08.084Z,101755.75
2022-08-26T14:41:39.071Z,101762.97
2022-08-26T14:44:10.720Z,101763.28
2022-08-26T14:46:43.657Z,101763.66
2022-08-26T14:49:10.882Z,101758.78
2022-08-26T14:51:38.229Z,101749.88
2022-08-26T14:54:14.071Z,101751.59
2022-08-26T14:56:56.188Z,101752.13
2022-08-26T14:59:33.390Z,101747.63
2022-08-26T15:02:00.645Z,101751.84
2022-08-26T15:04:28.153Z,101746.53
2022-08-26T15:06:56.541Z,101753.22
2022-08-26T15:09:23.937Z,101745.38
2022-08-26T15:11:51.159Z,101751.00
2022-08-26T15:14:19.935Z,101750.84
2022-08-26T15:16:53.161Z,101746.88
2022-08-26T15:19:21.033Z,101752.84
2022-08-26T15:21:47.707Z,101751.53
2022-08-26T15:24:16.630Z,101746.19
2022-08-26T15:26:43.871Z,101745.84
2022-08-26T15:29:10.355Z,101752.44
2022-08-26T15:31:36.975Z,101743.38
2022-08-26T15:34:06.921Z,101746.34
2022-08-26T15:36:35.455Z,101743.38
2022-08-26T15:39:02.101Z,101738.53
2022-08-26T15:41:29.577Z,101729.22
2022-08-26T15:43:56.610Z,101732.41
2022-08-26T15:46:23.313Z,101732.47
2022-08-26T15:48:50.073Z,101732.28
2022-08-26T15:51:23.071Z,101733.94
2022-08-26T15:53:50.407Z,101735.72
2022-08-26T15:56:17.814Z,101736.09
2022-08-26T15:58:44.911Z,101730.38
2022-08-26T16:01:11.506Z,101731.19
2022-08-26T16:03:38.166Z,101733.91
2022-08-26T16:06:04.839Z,101734.16
2022-08-26T16:08:32.852Z,101729.41
2022-08-26T16:11:03.941Z,101734.97
2022-08-26T16:13:39.501Z,101734.28
2022-08-26T16:16:07.610Z,101736.97
2022-08-26T16:18:34.201Z,101738.16
2022-08-26T16:21:13.537Z,101738.16
2022-08-26T16:23:40.403Z,101737.69
2022-08-26T16:26:11.966Z,101736.16
2022-08-26T16:28:38.892Z,101732.13
2022-08-26T16:31:06.361Z,101734.56
2022-08-26T16:33:32.903Z,101727.41
2022-08-26T16:35:59.719Z,101733.31
2022-08-26T16:38:26.186Z,101737.69
2022-08-26T16:40:52.708Z,101736.88
2022-08-26T16:43:19.159Z,101743.88
2022-08-26T16:45:45.842Z,101744.34
2022-08-26T16:48:12.525Z,101754.44
2022-08-26T16:50:40.663Z,101751.19
2022-08-26T16:53:07.542Z,101753.03
2022-08-26T16:55:34.878Z,101756.53
2022-08-26T16:58:01.431Z,101754.00
2022-08-26T17:00:30.444Z,101756.94
2022-08-26T17:02:58.757Z,101761.97
2022-08-26T17:05:26.934Z,101765.91
2022-08-26T17:07:55.411Z,101760.47
2022-08-26T17:10:22.660Z,101764.38
2022-08-26T17:12:49.486Z,101764.38
2022-08-26T17:15:17.748Z,101757.09
2022-08-26T17:17:44.462Z,101760.31
2022-08-26T17:20:15.075Z,101761.59
2022-08-26T17:22:45.687Z,101761.03
2022-08-26T17:25:24.663Z,101766.91
2022-08-26T17:27:52.204Z,101759.63
2022-08-26T17:30:20.097Z,101770.41
2022-08-26T17:32:46.772Z,101774.44
2022-08-26T17:35:15.436Z,101774.72
2022-08-26T17:37:42.002Z,101778.66
2022-08-26T17:40:12.533Z,101764.53
2022-08-26T17:42:40.031Z,101771.94
2022-08-26T17:45:07.965Z,101778.63
2022-08-26T17:47:34.995Z,101777.09
2022-08-26T17:50:01.769Z,101779.19
2022-08-26T17:52:29.438Z,101782.97
2022-08-26T17:54:56.536Z,101784.78
2022-08-26T17:57:24.628Z,101789.38
2022-08-26T17:59:51.633Z,101787.72
2022-08-26T18:02:21.013Z,101793.31
2022-08-26T18:04:47.925Z,101786.84
2022-08-26T18:07:15.271Z,101793.13
2022-08-26T18:09:42.287Z,101795.09
2022-08-26T18:12:09.230Z,101797.03
2022-08-26T18:14:36.201Z,101792.28
2022-08-26T18:17:02.999Z,101801.78
2022-08-26T18:19:29.913Z,101799.53
2022-08-26T18:21:56.796Z,101793.50
2022-08-26T18:24:23.403Z,101796.31
2022-08-26T18:26:50.956Z,101790.16
2022-08-26T18:29:19.840Z,101797.69
2022-08-26T18:31:48.369Z,101799.75
2022-08-26T18:34:16.490Z,101805.91
2022-08-26T18:36:43.814Z,101799.03
2022-08-26T18:39:11.484Z,101804.78
2022-08-26T18:41:49.028Z,101803.94
2022-08-26T18:44:17.660Z,101802.53
2022-08-26T18:46:45.859Z,101806.97
2022-08-26T18:49:14.266Z,101801.66
2022-08-26T18:51:42.171Z,101806.97
2022-08-26T18:54:08.928Z,101808.78
2022-08-26T18:56:37.560Z,101807.69
2022-08-26T18:59:06.182Z,101811.03
2022-08-26T19:01:33.883Z,101817.44
2022-08-26T19:04:02.110Z,101815.03
2022-08-26T19:06:32.862Z,101820.47
2022-08-26T19:08:59.997Z,101821.56
2022-08-26T19:11:31.809Z,101821.69
2022-08-26T19:14:06.659Z,101818.06
2022-08-26T19:16:33.412Z,101826.16
2022-08-26T19:19:01.364Z,101825.47
2022-08-26T19:21:29.151Z,101836.19
2022-08-26T19:23:57.903Z,101833.53
2022-08-26T19:26:25.433Z,101832.00
2022-08-26T19:28:52.823Z,101834.22
2022-08-26T19:31:19.992Z,101831.66
2022-08-26T19:33:46.483Z,101831.81
2022-08-26T19:36:16.754Z,101829.56
2022-08-26T19:38:45.036Z,101834.28
2022-08-26T19:41:16.333Z,101826.59
2022-08-26T19:43:42.991Z,101842.78
2022-08-26T19:46:15.119Z,101835.19
2022-08-26T19:48:44.712Z,101839.91
2022-08-26T19:51:24.180Z,101844.63
2022-08-26T19:53:52.473Z,101836.94
2022-08-26T19:56:18.947Z,101839.13
2022-08-26T19:58:45.518Z,101845.69
2022-08-26T20:01:13.379Z,101843.28
2022-08-26T20:03:41.429Z,101839.31
2022-08-26T20:06:10.208Z,101846.56
2022-08-26T20:08:38.584Z,101836.09
2022-08-26T20:11:09.000Z,101850.31
2022-08-26T20:13:36.229Z,101852.00
2022-08-26T20:16:03.000Z,101858.13
2022-08-26T20:18:48.373Z,101843.19
2022-08-26T20:21:27.333Z,101839.72
2022-08-26T20:24:05.061Z,101837.06
2022-08-26T20:26:34.599Z,101834.75
2022-08-26T20:29:01.431Z,101836.84
2022-08-26T20:31:28.111Z,101842.03
2022-08-26T20:33:55.255Z,101847.91
2022-08-26T20:36:23.785Z,101837.06
2022-08-26T20:38:50.887Z,101833.53
2022-08-26T20:41:17.790Z,101837.16
2022-08-26T20:43:45.027Z,101841.88
2022-08-26T20:46:17.399Z,101839.97
2022-08-26T20:48:46.703Z,101838.00
2022-08-26T20:51:13.277Z,101843.56
2022-08-26T20:53:40.000Z,101846.34
2022-08-26T20:56:08.618Z,101834.06
2022-08-26T20:58:36.173Z,101840.22
2022-08-26T21:01:07.755Z,101843.81
2022-08-26T21:03:35.611Z,101845.78
2022-08-26T21:06:03.687Z,101840.72
2022-08-26T21:08:30.550Z,101844.44
2022-08-26T21:10:59.958Z,101845.44
2022-08-26T21:13:26.510Z,101846.72
2022-08-26T21:15:56.528Z,101848.09
2022-08-26T21:18:23.238Z,101848.34
2022-08-26T21:20:51.496Z,101846.88
2022-08-26T21:23:18.658Z,101841.59
2022-08-26T21:25:45.910Z,101842.69
2022-08-26T21:28:12.751Z,101842.56
2022-08-26T21:30:40.670Z,101848.69
2022-08-26T21:33:08.474Z,101844.38
2022-08-26T21:35:35.309Z,101852.72
2022-08-26T21:38:01.929Z,101847.75
2022-08-26T21:40:28.495Z,101851.38
2022-08-26T21:42:55.123Z,101849.72
2022-08-26T21:45:21.846Z,101855.03
2022-08-26T21:47:48.449Z,101852.47
2022-08-26T21:50:15.083Z,101851.63
2022-08-26T21:52:41.627Z,101858.16
2022-08-26T21:55:11.800Z,101851.28
2022-08-26T21:57:38.594Z,101855.16
2022-08-26T22:00:08.868Z,101856.97
2022-08-26T22:02:36.821Z,101856.38
2022-08-26T22:05:04.148Z,101861.06
2022-08-26T22:07:31.190Z,101865.66
2022-08-26T22:09:57.874Z,101855.16
2022-08-26T22:12:24.421Z,101859.75
2022-08-26T22:14:51.079Z,101861.66
2022-08-26T22:17:17.643Z,101873.97
2022-08-26T22:19:45.928Z,101867.69
2022-08-26T22:22:13.572Z,101873.09
2022-08-26T22:24:40.078Z,101864.22
2022-08-26T22:27:06.832Z,101865.16
2022-08-26T22:29:33.368Z,101869.03
2022-08-26T22:32:01.389Z,101860.09
2022-08-26T22:34:28.319Z,101864.44
2022-08-26T22:36:55.601Z,101863.72
2022-08-26T22:39:24.727Z,101867.59
2022-08-26T22:41:53.046Z,101870.47
2022-08-26T22:44:22.119Z,101868.78
2022-08-26T22:46:50.367Z,101863.38
2022-08-26T22:49:17.444Z,101861.09
2022-08-26T22:51:45.753Z,101864.72
2022-08-26T22:54:13.751Z,101857.69
2022-08-26T22:56:41.299Z,101858.53
2022-08-26T22:59:08.312Z,101857.00
2022-08-26T23:01:40.129Z,101851.81
2022-08-26T23:04:07.395Z,101857.25
2022-08-26T23:06:38.852Z,101854.81
2022-08-26T23:09:06.666Z,101859.28
2022-08-26T23:11:33.647Z,101853.13
2022-08-26T23:14:02.832Z,101860.38
2022-08-26T23:16:39.216Z,101847.22
2022-08-26T23:19:06.050Z,101848.44
2022-08-26T23:21:33.225Z,101846.84
2022-08-26T23:23:59.894Z,101853.03
2022-08-26T23:26:26.603Z,101846.03
2022-08-26T23:28:53.375Z,101852.88
2022-08-26T23:31:19.980Z,101844.94
2022-08-26T23:34:05.308Z,101844.09
2022-08-26T23:36:32.318Z,101841.31
2022-08-26T23:39:01.688Z,101843.97
2022-08-26T23:41:28.360Z,101850.97
2022-08-26T23:43:54.895Z,101852.75
2022-08-26T23:46:21.486Z,101841.22
2022-08-26T23:48:48.077Z,101838.56
2022-08-26T23:51:33.353Z,101845.69
2022-08-26T23:53:59.892Z,101839.66
2022-08-26T23:56:26.881Z,101834.13
2022-08-26T23:58:54.162Z,101838.34
